Terminal Aerodrome Forecast
Issued by NWS

Current Version | Previous Version | Graphics & Text | Print | Product List | Glossary On
Versions: 1 2 3 4 5 6 7 8 9 10 11 12 13 14 15 16 17 18 19 20 21 22 23 24 25 26 27 28 29
073
FTUS41 KPBZ 102341
TAFHLG
TAF
KHLG 102341Z 1100/1124 27010G20KT 6SM -SHSN OVC025
     FM110400 27012G20KT 3SM -SHSN OVC012
     FM111000 29010G20KT 6SM -SHSN OVC025
     FM111800 30012G20KT P6SM OVC040=

USA.gov is the U.S. government's official web portal to all federal, state and local government web resources and services.